Time;durP1;ratioP1;P1;durP2;ratioP2;P2;SDS_P1;SDS_P2;PMS_P1;PMS_P2;Temp;Humidity;BMP_temperature;BMP_pressure;BME280_temperature;BME280_humidity;BME280_pressure;Samples;Min_cycle;Max_cycle;Signal;HPM_P1;HPM_P2
2024/01/02 00:00:00;;;;;;;7.32;3.15;;;;;;;8.34;66.79;99913.75;4159315;28;20045;-66
2024/01/02 00:02:03;;;;;;;6.22;2.47;;;;;;;8.32;66.86;99909.41;4162540;28;20037;-66
2024/01/02 00:04:08;;;;;;;7.35;2.55;;;;;;;8.29;67.04;99901.59;4178497;28;20401;-66
2024/01/02 00:06:14;;;;;;;5.55;2.30;;;;;;;8.26;67.31;99892.06;4161408;28;20068;-66
2024/01/02 00:08:18;;;;;;;6.55;1.73;;;;;;;8.20;67.38;99895.41;4149932;28;20038;-67
2024/01/02 00:10:22;;;;;;;10.88;3.33;;;;;;;8.27;66.89;99892.94;4160730;28;20462;-67
2024/01/02 00:12:25;;;;;;;7.30;3.22;;;;;;;8.28;66.55;99892.06;4149443;28;20037;-66
2024/01/02 00:14:28;;;;;;;5.53;2.35;;;;;;;8.23;66.92;99881.66;4163127;28;20037;-66
2024/01/02 00:16:31;;;;;;;6.75;1.83;;;;;;;8.23;67.19;99881.66;4162287;28;20095;-67
2024/01/02 00:18:34;;;;;;;5.13;2.55;;;;;;;8.30;67.25;99869.69;4159889;28;20072;-65
2024/01/02 00:20:39;;;;;;;7.32;2.00;;;;;;;8.27;67.21;99870.50;4162332;28;20040;-67
2024/01/02 00:22:42;;;;;;;8.65;2.50;;;;;;;8.32;66.81;99863.66;4164053;28;20095;-67
2024/01/02 00:24:45;;;;;;;7.75;1.85;;;;;;;8.24;67.00;99862.69;4164135;28;20133;-67
2024/01/02 00:26:48;;;;;;;4.22;1.42;;;;;;;8.18;67.22;99866.06;4164204;28;20069;-67
2024/01/02 00:28:51;;;;;;;3.90;1.65;;;;;;;8.17;67.28;99851.34;4179199;28;20147;-67
2024/01/02 00:30:53;;;;;;;9.35;1.80;;;;;;;8.26;67.07;99848.03;4157566;28;20049;-67
2024/01/02 00:32:56;;;;;;;5.53;1.88;;;;;;;8.27;66.93;99847.19;4160120;28;20040;-67
2024/01/02 00:35:00;;;;;;;4.18;1.50;;;;;;;8.22;67.20;99843.69;4150753;28;20049;-67
2024/01/02 00:37:05;;;;;;;4.82;1.88;;;;;;;8.25;67.09;99848.00;4154084;28;20129;-67
2024/01/02 00:39:07;;;;;;;6.43;2.80;;;;;;;8.29;66.94;99842.88;4159689;28;20585;-67
2024/01/02 00:41:10;;;;;;;7.40;1.67;;;;;;;8.43;66.69;99839.63;4161965;28;20087;-66
2024/01/02 00:43:13;;;;;;;5.70;1.75;;;;;;;8.41;66.18;99838.72;4159870;28;20129;-67
2024/01/02 00:45:15;;;;;;;7.47;1.70;;;;;;;8.33;66.94;99834.31;4140568;28;20042;-66
2024/01/02 00:47:21;;;;;;;2.85;1.23;;;;;;;8.34;67.04;99833.47;4154633;28;20095;-66
2024/01/02 00:49:24;;;;;;;7.53;2.15;;;;;;;8.32;67.04;99824.81;4158194;28;20045;-67
2024/01/02 00:51:27;;;;;;;4.43;1.40;;;;;;;8.31;67.14;99811.81;4155398;28;20045;-66
2024/01/02 00:53:31;;;;;;;3.50;1.38;;;;;;;8.29;67.01;99813.53;4155665;28;20400;-66
2024/01/02 00:55:34;;;;;;;5.30;1.30;;;;;;;8.37;67.03;99798.97;4160778;28;20527;-67
2024/01/02 00:57:36;;;;;;;3.58;1.50;;;;;;;8.36;66.36;99798.09;4155459;28;20140;-67
2024/01/02 00:59:39;;;;;;;5.38;2.10;;;;;;;8.28;66.74;99801.44;4161234;28;20041;-66
2024/01/02 01:01:42;;;;;;;5.78;1.73;;;;;;;8.29;67.00;99791.09;4151224;28;20038;-66
2024/01/02 01:03:45;;;;;;;8.57;2.13;;;;;;;8.28;66.78;99791.06;4159493;28;20499;-66
2024/01/02 01:05:48;;;;;;;4.65;2.03;;;;;;;8.27;67.25;99795.41;4160736;28;20030;-66
2024/01/02 01:07:51;;;;;;;5.10;1.60;;;;;;;8.28;66.97;99783.31;4150931;28;20150;-66
2024/01/02 01:09:57;;;;;;;3.80;1.40;;;;;;;8.30;66.68;99792.84;4157935;28;20601;-66
2024/01/02 01:12:00;;;;;;;4.85;1.67;;;;;;;8.41;66.67;99786.91;4161713;28;20034;-68
2024/01/02 01:14:03;;;;;;;11.15;2.45;;;;;;;8.39;66.84;99779.13;4159511;28;20046;-65
2024/01/02 01:16:06;;;;;;;4.70;1.27;;;;;;;8.39;66.94;99780.00;4155765;28;20076;-66
2024/01/02 01:18:09;;;;;;;6.30;1.27;;;;;;;8.42;66.69;99774.00;4154701;28;20538;-66
2024/01/02 01:20:13;;;;;;;6.33;1.60;;;;;;;8.38;66.66;99769.63;4142976;28;20042;-66
2024/01/02 01:22:17;;;;;;;5.03;1.27;;;;;;;8.33;66.88;99766.13;4158983;28;20042;-66
2024/01/02 01:24:20;;;;;;;6.18;1.65;;;;;;;8.31;67.33;99768.69;4161195;28;20045;-66
2024/01/02 01:26:24;;;;;;;5.88;1.70;;;;;;;8.37;67.13;99761.00;4162538;28;20103;-66
2024/01/02 01:28:27;;;;;;;7.32;1.75;;;;;;;8.36;66.80;99755.78;4162872;28;20069;-66
2024/01/02 01:30:30;;;;;;;5.85;1.50;;;;;;;8.39;66.85;99756.69;4161759;28;20053;-66
2024/01/02 01:32:33;;;;;;;6.88;1.88;;;;;;;8.33;67.13;99750.59;4160787;28;20084;-66
2024/01/02 01:34:36;;;;;;;4.18;1.48;;;;;;;8.35;67.01;99746.28;4160036;28;20100;-66
2024/01/02 01:36:39;;;;;;;6.35;1.60;;;;;;;8.38;66.73;99742.03;4154297;28;20132;-65
2024/01/02 01:38:42;;;;;;;4.55;1.55;;;;;;;8.27;67.11;99738.44;4152530;28;20492;-66
2024/01/02 01:40:45;;;;;;;6.13;1.73;;;;;;;8.29;67.26;99723.75;4160761;28;20488;-66
2024/01/02 01:42:50;;;;;;;5.05;1.60;;;;;;;8.29;67.52;99726.34;4160796;28;20030;-66
2024/01/02 01:44:53;;;;;;;4.47;1.25;;;;;;;8.28;67.96;99722.03;4161440;28;20042;-66
2024/01/02 01:46:57;;;;;;;3.78;1.40;;;;;;;8.24;67.75;99720.28;4161850;28;20038;-66
2024/01/02 01:49:00;;;;;;;6.85;1.50;;;;;;;8.26;67.63;99709.94;4152588;28;20389;-66
2024/01/02 01:51:04;;;;;;;3.47;1.20;;;;;;;8.30;68.12;99715.16;4154544;28;20046;-66
2024/01/02 01:53:08;;;;;;;4.75;1.33;;;;;;;8.32;68.21;99718.66;4161092;28;20041;-66
2024/01/02 01:55:11;;;;;;;8.23;2.63;;;;;;;8.35;67.86;99712.59;4157985;28;20376;-66
2024/01/02 01:57:15;;;;;;;3.25;1.38;;;;;;;8.27;68.43;99715.13;4160718;28;20049;-67
2024/01/02 01:59:20;;;;;;;6.67;1.60;;;;;;;8.35;68.27;99708.31;4165360;28;20041;-67
2024/01/02 02:01:23;;;;;;;6.97;1.55;;;;;;;8.24;68.27;99709.06;4160314;28;20048;-67
2024/01/02 02:03:27;;;;;;;2.85;1.38;;;;;;;8.18;68.67;99702.94;4166230;28;20037;-67
2024/01/02 02:05:32;;;;;;;3.42;0.90;;;;;;;8.22;68.94;99701.28;4157339;28;20069;-67
2024/01/02 02:07:35;;;;;;;6.15;1.83;;;;;;;8.17;69.25;99697.75;4146449;28;20042;-66
2024/01/02 02:09:38;;;;;;;3.80;1.27;;;;;;;8.20;69.32;99693.47;4160990;28;20538;-66
2024/01/02 02:11:40;;;;;;;6.80;1.73;;;;;;;8.14;69.92;99688.22;4158153;28;20038;-66
2024/01/02 02:13:44;;;;;;;6.00;1.05;;;;;;;8.10;70.13;99688.16;4158126;28;20503;-66
2024/01/02 02:15:49;;;;;;;3.57;1.30;;;;;;;8.06;70.34;99674.34;4158360;28;20099;-66
2024/01/02 02:17:52;;;;;;;3.88;1.17;;;;;;;8.03;70.87;99680.34;4165245;28;20068;-66
2024/01/02 02:19:56;;;;;;;3.13;1.10;;;;;;;8.07;71.14;99664.84;4147657;28;20116;-66
2024/01/02 02:22:01;;;;;;;3.65;1.25;;;;;;;8.16;71.07;99667.50;4158512;28;20033;-66
2024/01/02 02:24:06;;;;;;;3.95;1.40;;;;;;;8.16;71.68;99659.75;4161277;28;20350;-66
2024/01/02 02:26:08;;;;;;;5.03;1.38;;;;;;;8.17;71.65;99666.69;4161437;28;20431;-67
2024/01/02 02:28:11;;;;;;;3.70;1.25;;;;;;;8.08;71.80;99651.91;4162923;28;20033;-66
2024/01/02 02:30:14;;;;;;;10.82;1.95;;;;;;;8.02;72.46;99651.84;4164097;28;20477;-66
2024/01/02 02:32:17;;;;;;;1.67;1.00;;;;;;;7.97;72.68;99643.16;4160104;28;20514;-66
2024/01/02 02:34:20;;;;;;;6.15;1.92;;;;;;;7.89;73.11;99645.66;4164559;28;20145;-66
2024/01/02 02:36:23;;;;;;;4.18;1.20;;;;;;;7.82;73.50;99633.50;4154215;28;20045;-66
2024/01/02 02:38:26;;;;;;;3.90;1.33;;;;;;;7.73;73.75;99633.38;4162724;28;20100;-66
2024/01/02 02:40:30;;;;;;;4.85;1.70;;;;;;;7.81;74.17;99622.28;4156549;28;20096;-66
2024/01/02 02:42:32;;;;;;;4.65;1.20;;;;;;;7.82;73.93;99623.13;4163587;28;20080;-66
2024/01/02 02:44:35;;;;;;;2.95;1.15;;;;;;;7.81;74.33;99616.22;4159093;28;20087;-66
2024/01/02 02:46:37;;;;;;;3.72;1.05;;;;;;;7.85;74.70;99613.69;4159005;28;20065;-66
2024/01/02 02:48:40;;;;;;;3.15;1.33;;;;;;;7.78;74.80;99598.06;4158951;28;20041;-67
2024/01/02 02:50:43;;;;;;;2.40;0.98;;;;;;;7.69;75.31;99591.06;4153483;28;20430;-66
2024/01/02 02:52:46;;;;;;;3.75;1.05;;;;;;;7.63;75.78;99589.28;4162459;28;20037;-67
2024/01/02 02:54:49;;;;;;;3.50;1.30;;;;;;;7.69;75.92;99586.78;4158857;28;20044;-67
2024/01/02 02:56:54;;;;;;;3.45;0.98;;;;;;;7.71;75.76;99584.22;4161730;28;20033;-67
2024/01/02 02:58:57;;;;;;;1.17;0.80;;;;;;;7.71;75.89;99567.81;4164284;28;20546;-67
2024/01/02 03:01:00;;;;;;;4.90;1.20;;;;;;;7.56;76.25;99568.50;4161447;28;20033;-67
2024/01/02 03:03:03;;;;;;;4.38;1.25;;;;;;;7.49;76.50;99557.19;4157465;28;20049;-67
2024/01/02 03:05:06;;;;;;;5.07;1.00;;;;;;;7.59;76.93;99560.78;4161705;28;20041;-67
2024/01/02 03:07:10;;;;;;;2.28;0.98;;;;;;;7.59;77.01;99555.59;4159262;28;20096;-67
2024/01/02 03:09:12;;;;;;;8.40;1.00;;;;;;;7.66;77.15;99528.97;4163861;28;20107;-67
2024/01/02 03:11:15;;;;;;;3.00;1.20;;;;;;;7.68;76.89;99530.72;4156635;28;20042;-67
2024/01/02 03:13:20;;;;;;;5.38;1.30;;;;;;;7.65;77.02;99535.84;4160721;28;20047;-67
2024/01/02 03:15:23;;;;;;;3.78;1.05;;;;;;;7.59;77.18;99525.41;4161378;28;21329;-67
2024/01/02 03:17:26;;;;;;;6.55;1.20;;;;;;;7.57;77.77;99516.78;4151196;28;20041;-67
2024/01/02 03:19:29;;;;;;;3.78;0.80;;;;;;;7.65;77.43;99522.03;4158826;28;20051;-67
2024/01/02 03:21:31;;;;;;;1.58;1.02;;;;;;;7.63;77.78;99511.69;4158320;28;20042;-67
2024/01/02 03:23:34;;;;;;;4.35;0.90;;;;;;;7.71;77.36;99505.72;4160308;28;20676;-66
2024/01/02 03:25:37;;;;;;;1.98;0.85;;;;;;;7.55;77.52;99505.56;4154318;28;20099;-66
2024/01/02 03:27:40;;;;;;;3.22;1.23;;;;;;;7.52;78.49;99490.03;4164040;28;20057;-66
2024/01/02 03:29:45;;;;;;;5.75;1.20;;;;;;;7.64;78.16;99478.94;4162985;28;20064;-66
2024/01/02 03:31:48;;;;;;;;;;;;;;;7.64;77.86;99468.59;4161772;28;20038;-67
2024/01/02 03:33:51;;;;;;;5.90;1.23;;;;;;;7.54;78.75;99459.84;4176902;28;19995;-66
2024/01/02 03:35:54;;;;;;;2.55;0.95;;;;;;;7.52;78.25;99440.88;4163788;28;20125;-66
2024/01/02 03:37:57;;;;;;;1.60;0.80;;;;;;;7.55;78.68;99434.84;4159440;28;20068;-67
2024/01/02 03:39:59;;;;;;;4.95;1.02;;;;;;;7.56;78.85;99421.06;4160715;28;20042;-67
2024/01/02 03:42:02;;;;;;;2.92;1.65;;;;;;;7.53;78.71;99424.50;4163825;28;20064;-67
2024/01/02 03:44:05;;;;;;;2.97;0.90;;;;;;;7.48;78.83;99418.44;4163727;28;20159;-67
2024/01/02 03:46:10;;;;;;;1.38;0.85;;;;;;;7.57;78.72;99409.88;4158598;28;20041;-67
2024/01/02 03:48:13;;;;;;;0.73;0.70;;;;;;;7.54;79.22;99410.72;4157374;28;20072;-67
2024/01/02 03:50:16;;;;;;;3.13;0.80;;;;;;;7.48;79.67;99406.34;4162799;28;20426;-67
2024/01/02 03:52:19;;;;;;;5.25;0.80;;;;;;;7.56;79.34;99408.16;4159960;28;20056;-67
2024/01/02 03:54:22;;;;;;;2.05;0.80;;;;;;;7.62;78.97;99409.09;4153861;28;20038;-67
2024/01/02 03:56:25;;;;;;;2.38;0.68;;;;;;;7.49;79.41;99402.94;4161555;28;20103;-67
2024/01/02 03:58:30;;;;;;;2.53;1.30;;;;;;;7.47;79.94;99380.47;4162050;28;20448;-67
2024/01/02 04:00:35;;;;;;;1.55;0.70;;;;;;;7.52;79.51;99384.00;4163479;28;20037;-67
2024/01/02 04:02:39;;;;;;;1.42;0.63;;;;;;;7.51;79.81;99380.53;4160589;28;20041;-67
2024/01/02 04:04:42;;;;;;;;;;;;;;;7.56;79.72;99377.97;4163195;28;20040;-67
2024/01/02 04:06:46;;;;;;;1.13;0.85;;;;;;;7.59;79.35;99378.00;4163627;28;20350;-67
2024/01/02 04:08:49;;;;;;;1.35;0.68;;;;;;;7.62;79.38;99372.88;4151621;28;20491;-67
2024/01/02 04:10:51;;;;;;;2.53;0.90;;;;;;;7.54;79.86;99374.50;4160823;28;20068;-67
2024/01/02 04:12:53;;;;;;;1.77;0.50;;;;;;;7.50;79.95;99362.41;4158005;28;20040;-67
2024/01/02 04:14:56;;;;;;;3.30;0.95;;;;;;;7.46;80.38;99352.88;4161599;28;20061;-67
2024/01/02 04:17:00;;;;;;;4.50;1.48;;;;;;;7.62;79.67;99351.28;4155043;28;20091;-67
2024/01/02 04:19:04;;;;;;;1.60;0.70;;;;;;;7.55;80.09;99329.69;4160889;28;20099;-67
2024/01/02 04:21:06;;;;;;;1.35;0.60;;;;;;;7.60;79.92;99327.16;4164021;28;20444;-67
2024/01/02 04:23:09;;;;;;;2.30;0.88;;;;;;;7.57;80.38;99322.81;4158748;28;20522;-67
2024/01/02 04:25:12;;;;;;;3.03;0.90;;;;;;;7.58;80.72;99314.22;4163069;28;20491;-67
2024/01/02 04:27:15;;;;;;;2.38;0.65;;;;;;;7.53;80.40;99326.22;4154847;28;20071;-67
2024/01/02 04:29:17;;;;;;;2.05;0.80;;;;;;;7.48;80.96;99317.56;4163315;28;20129;-67
2024/01/02 04:31:20;;;;;;;1.40;0.70;;;;;;;7.58;80.82;99311.63;4161299;28;20052;-66
2024/01/02 04:33:23;;;;;;;2.25;0.82;;;;;;;7.57;80.56;99306.44;4161988;28;20372;-67
2024/01/02 04:35:27;;;;;;;2.88;0.70;;;;;;;7.55;80.76;99303.84;4160781;28;20037;-67
2024/01/02 04:37:30;;;;;;;1.88;0.70;;;;;;;7.46;80.76;99304.63;4154410;28;20442;-67
2024/01/02 04:39:33;;;;;;;2.53;1.23;;;;;;;7.54;81.01;99301.25;4163058;28;20483;-67
2024/01/02 04:41:36;;;;;;;3.60;0.73;;;;;;;7.60;80.50;99291.78;4162865;28;20491;-64
2024/01/02 04:43:39;;;;;;;2.20;0.80;;;;;;;7.55;80.56;99288.31;4157179;28;20403;-64
2024/01/02 04:45:42;;;;;;;1.23;0.70;;;;;;;7.56;80.71;99284.84;4161967;28;20037;-65
2024/01/02 04:47:46;;;;;;;2.80;1.17;;;;;;;7.55;80.67;99282.25;4158720;28;20484;-65
2024/01/02 04:49:49;;;;;;;5.75;1.27;;;;;;;7.57;80.52;99280.56;4161940;28;20049;-65
2024/01/02 04:51:53;;;;;;;3.50;0.70;;;;;;;7.57;80.41;99270.22;4158087;28;20067;-65
2024/01/02 04:53:57;;;;;;;2.53;1.10;;;;;;;7.49;80.60;99273.63;4159044;28;20044;-65
2024/01/02 04:56:00;;;;;;;1.97;0.80;;;;;;;7.57;80.77;99262.47;4159755;28;20546;-65
2024/01/02 04:58:04;;;;;;;3.08;0.63;;;;;;;7.43;81.15;99246.84;4161958;28;20038;-66
2024/01/02 05:00:09;;;;;;;3.35;1.00;;;;;;;7.46;81.29;99252.91;4158945;28;20065;-65
2024/01/02 05:02:12;;;;;;;0.75;0.70;;;;;;;7.46;81.00;99241.69;4161224;28;20088;-65
2024/01/02 05:04:15;;;;;;;3.42;1.00;;;;;;;7.57;80.98;99231.44;4149476;28;20153;-66
2024/01/02 05:06:17;;;;;;;6.57;0.85;;;;;;;7.51;81.39;99232.25;4158058;28;20046;-66
2024/01/02 05:08:22;;;;;;;1.33;0.80;;;;;;;7.51;81.07;99225.34;4156190;28;20515;-66
2024/01/02 05:10:25;;;;;;;2.90;0.60;;;;;;;7.42;81.50;99229.63;4155232;28;20204;-66
2024/01/02 05:12:28;;;;;;;2.35;0.80;;;;;;;7.54;81.67;99226.25;4150507;28;20064;-65
2024/01/02 05:14:31;;;;;;;1.55;0.50;;;;;;;7.47;81.45;99222.75;4150887;28;20067;-66
2024/01/02 05:16:34;;;;;;;1.50;0.90;;;;;;;7.48;81.47;99227.06;4161760;28;20390;-66
2024/01/02 05:18:37;;;;;;;2.83;0.82;;;;;;;7.52;81.76;99213.31;4162223;28;20384;-66
2024/01/02 05:20:40;;;;;;;0.98;0.57;;;;;;;7.53;81.48;99209.84;4155339;28;20037;-66
2024/01/02 05:22:43;;;;;;;0.85;0.60;;;;;;;7.50;81.68;99217.59;4156537;28;20033;-66
2024/01/02 05:24:47;;;;;;;0.98;0.50;;;;;;;7.49;82.14;99200.34;4159131;28;20044;-66
2024/01/02 05:26:52;;;;;;;2.90;0.60;;;;;;;7.44;81.72;99202.91;4153216;28;20042;-66
2024/01/02 05:28:55;;;;;;;0.80;0.73;;;;;;;7.51;81.89;99194.31;4147068;28;20519;-65
2024/01/02 05:30:58;;;;;;;0.93;0.60;;;;;;;7.55;81.95;99182.28;4158481;28;20129;-65
2024/01/02 05:33:01;;;;;;;2.00;0.73;;;;;;;7.67;81.27;99184.94;4164278;28;20061;-65
2024/01/02 05:35:06;;;;;;;3.95;0.90;;;;;;;7.53;81.50;99170.19;4166626;28;20111;-66
2024/01/02 05:37:08;;;;;;;0.65;0.60;;;;;;;7.57;82.32;99177.13;4165935;28;20042;-66
2024/01/02 05:39:12;;;;;;;2.47;0.70;;;;;;;7.51;81.85;99172.78;4166532;28;20033;-66
2024/01/02 05:41:16;;;;;;;3.63;0.60;;;;;;;7.50;82.07;99165.88;4166744;28;20037;-66
2024/01/02 05:43:19;;;;;;;1.05;0.60;;;;;;;7.38;82.59;99171.84;4166679;28;20041;-66
2024/01/02 05:45:21;;;;;;;2.80;2.05;;;;;;;7.44;82.74;99160.66;4166392;28;20132;-66
2024/01/02 05:47:24;;;;;;;0.70;0.50;;;;;;;7.50;82.48;99158.13;4166769;28;20068;-66
2024/01/02 05:49:26;;;;;;;0.80;0.52;;;;;;;7.60;82.10;99156.44;4165480;28;20049;-67
2024/01/02 05:51:29;;;;;;;1.65;0.60;;;;;;;7.63;82.12;99153.88;4167016;28;20048;-67
2024/01/02 05:53:32;;;;;;;3.72;0.60;;;;;;;7.58;82.04;99138.34;4168869;28;20048;-67
2024/01/02 05:55:35;;;;;;;2.05;0.70;;;;;;;7.63;82.01;99161.63;4166949;28;20088;-66
2024/01/02 05:57:39;;;;;;;2.33;0.60;;;;;;;7.53;82.18;99157.28;4166724;28;20068;-66
2024/01/02 05:59:42;;;;;;;0.57;0.57;;;;;;;7.66;82.27;99144.38;4166578;28;20084;-66
2024/01/02 06:01:45;;;;;;;1.63;0.80;;;;;;;7.63;82.17;99141.78;4166381;28;20037;-66
2024/01/02 06:03:48;;;;;;;1.95;1.00;;;;;;;7.60;82.08;99140.94;4165117;28;20104;-67
2024/01/02 06:05:51;;;;;;;1.23;0.40;;;;;;;7.51;82.70;99129.66;4166074;28;20037;-66
2024/01/02 06:07:54;;;;;;;2.15;0.70;;;;;;;7.61;82.91;99127.16;4166351;28;20458;-65
2024/01/02 06:09:57;;;;;;;2.05;0.60;;;;;;;7.58;82.39;99132.28;4166370;28;20073;-66
2024/01/02 06:12:00;;;;;;;0.73;0.60;;;;;;;7.57;82.76;99121.09;4166394;28;20037;-67
2024/01/02 06:14:04;;;;;;;0.90;0.60;;;;;;;7.71;82.12;99128.03;4181406;28;20135;-67
2024/01/02 06:16:09;;;;;;;0.68;0.57;;;;;;;7.77;81.84;99123.75;4165802;28;20484;-65
2024/01/02 06:18:13;;;;;;;0.85;0.50;;;;;;;7.64;81.74;99130.59;4164905;28;20539;-65
2024/01/02 06:20:16;;;;;;;1.38;0.60;;;;;;;7.52;82.65;99135.72;4166165;28;20396;-66
2024/01/02 06:22:20;;;;;;;1.90;0.75;;;;;;;7.56;82.70;99134.00;4166095;28;20037;-66
2024/01/02 06:24:23;;;;;;;1.65;0.90;;;;;;;7.68;81.94;99134.06;4165983;28;20457;-66
2024/01/02 06:26:26;;;;;;;4.07;0.77;;;;;;;7.70;81.81;99132.34;4165798;28;20034;-66
2024/01/02 06:28:29;;;;;;;1.95;0.68;;;;;;;7.63;82.14;99126.28;4166031;28;20041;-65
2024/01/02 06:30:33;;;;;;;1.92;0.70;;;;;;;7.72;82.15;99127.19;4164721;28;20056;-64
2024/01/02 06:32:36;;;;;;;0.90;0.60;;;;;;;7.64;82.49;99150.44;4166073;28;20084;-65
2024/01/02 06:34:38;;;;;;;0.90;0.50;;;;;;;7.49;82.51;99133.97;4165878;28;20048;-65
2024/01/02 06:36:41;;;;;;;0.82;0.63;;;;;;;7.57;83.04;99146.94;4165679;28;20037;-66
2024/01/02 06:38:44;;;;;;;1.17;0.60;;;;;;;7.60;83.08;99128.84;4165906;28;20124;-65
2024/01/02 06:40:47;;;;;;;1.02;0.63;;;;;;;7.72;82.89;99137.53;4165817;28;20037;-66
2024/01/02 06:42:50;;;;;;;0.68;0.50;;;;;;;7.64;82.96;99142.69;4165828;28;20038;-66
2024/01/02 06:44:52;;;;;;;0.50;0.50;;;;;;;7.61;82.68;99143.53;4165539;28;20038;-67
2024/01/02 06:46:57;;;;;;;0.88;0.57;;;;;;;7.52;83.31;99138.31;4165451;28;20110;-67
2024/01/02 06:49:03;;;;;;;0.52;0.50;;;;;;;7.52;83.66;99138.31;4165843;28;20076;-67
2024/01/02 06:51:06;;;;;;;0.65;0.65;;;;;;;7.65;83.21;99147.84;4165738;28;20042;-67
2024/01/02 06:53:09;;;;;;;0.82;0.68;;;;;;;7.60;83.28;99139.19;4164503;28;20135;-67
2024/01/02 06:55:12;;;;;;;1.05;0.60;;;;;;;7.71;82.90;99128.03;4164103;28;20496;-67
2024/01/02 06:57:15;;;;;;;0.43;0.43;;;;;;;7.70;83.06;99137.53;4165836;28;20120;-67
2024/01/02 06:59:18;;;;;;;1.50;0.50;;;;;;;7.66;82.92;99141.81;4163765;28;20064;-67
2024/01/02 07:01:21;;;;;;;1.98;0.75;;;;;;;7.67;83.25;99135.78;4165388;28;20045;-67
2024/01/02 07:03:25;;;;;;;0.82;0.50;;;;;;;7.64;83.26;99127.16;4165038;28;20044;-67
2024/01/02 07:05:28;;;;;;;0.40;0.40;;;;;;;7.63;83.84;99123.69;4165087;28;20037;-67
2024/01/02 07:07:31;;;;;;;0.50;0.50;;;;;;;7.75;82.97;99130.63;4164533;28;20064;-67
2024/01/02 07:09:34;;;;;;;1.13;0.60;;;;;;;7.79;83.35;99136.69;4158503;28;20136;-67
2024/01/02 07:11:38;;;;;;;0.85;0.70;;;;;;;7.84;83.00;99132.41;4157119;28;20486;-67
2024/01/02 07:13:40;;;;;;;1.20;0.60;;;;;;;7.79;83.55;99136.69;4163114;28;20518;-66
2024/01/02 07:15:43;;;;;;;2.42;0.70;;;;;;;7.78;83.28;99124.63;4158428;28;20128;-67
2024/01/02 07:17:46;;;;;;;0.40;0.40;;;;;;;7.81;83.02;99135.84;4172776;28;20522;-67
2024/01/02 07:19:51;;;;;;;2.05;0.57;;;;;;;7.83;83.21;99128.09;4163577;28;20491;-67
2024/01/02 07:21:54;;;;;;;1.52;0.73;;;;;;;7.81;83.57;99140.16;4163226;28;20084;-67
2024/01/02 07:23:57;;;;;;;1.05;0.70;;;;;;;7.92;83.12;99132.44;4158279;28;20115;-66
2024/01/02 07:26:00;;;;;;;0.95;0.32;;;;;;;7.88;83.14;99141.06;4157983;28;20080;-66
2024/01/02 07:28:03;;;;;;;0.40;0.38;;;;;;;7.75;83.70;99146.16;4154280;28;20528;-66
2024/01/02 07:30:08;;;;;;;1.90;0.52;;;;;;;7.84;83.50;99129.81;4163626;28;20155;-66
2024/01/02 07:32:11;;;;;;;1.45;0.57;;;;;;;7.84;83.82;99151.38;4165217;28;20416;-67
2024/01/02 07:34:13;;;;;;;0.40;0.30;;;;;;;7.83;83.57;99159.16;4163761;28;20045;-67
2024/01/02 07:36:18;;;;;;;0.60;0.52;;;;;;;7.93;84.04;99163.50;4163410;28;20511;-67
2024/01/02 07:38:25;;;;;;;0.77;0.60;;;;;;;8.04;83.43;99166.13;4163873;28;20474;-67
2024/01/02 07:40:28;;;;;;;0.57;0.50;;;;;;;8.06;83.57;99160.94;4158797;28;20513;-67
2024/01/02 07:42:32;;;;;;;0.85;0.50;;;;;;;8.08;83.54;99154.06;4157719;28;20042;-67
2024/01/02 07:44:35;;;;;;;0.80;0.50;;;;;;;8.04;83.55;99159.25;4164928;28;20410;-67
2024/01/02 07:46:38;;;;;;;0.82;0.55;;;;;;;8.13;83.24;99152.34;4164798;28;20095;-67
2024/01/02 07:48:41;;;;;;;0.38;0.38;;;;;;;8.17;83.40;99156.66;4164616;28;20148;-67
2024/01/02 07:50:44;;;;;;;1.10;0.60;;;;;;;8.25;82.84;99160.16;4164542;28;20047;-67
2024/01/02 07:52:49;;;;;;;0.45;0.40;;;;;;;8.27;82.51;99171.38;4164471;28;20041;-67
2024/01/02 07:54:51;;;;;;;1.17;0.60;;;;;;;8.18;83.20;99171.34;4162802;28;20092;-66
2024/01/02 07:56:54;;;;;;;0.88;0.47;;;;;;;8.19;82.65;99167.88;4180141;28;20025;-67
2024/01/02 07:58:57;;;;;;;0.73;0.70;;;;;;;8.21;82.60;99171.34;4165769;28;20164;-66
2024/01/02 08:01:00;;;;;;;1.33;0.50;;;;;;;8.24;82.89;99176.53;4163764;28;20033;-66
2024/01/02 08:03:03;;;;;;;2.17;0.52;;;;;;;8.20;82.72;99164.44;4164265;28;20057;-66
2024/01/02 08:05:06;;;;;;;0.65;0.60;;;;;;;8.37;82.30;99173.13;4164341;28;20041;-66
2024/01/02 08:07:09;;;;;;;1.02;0.40;;;;;;;8.31;82.76;99173.09;4164331;28;20034;-67
2024/01/02 08:09:14;;;;;;;1.17;0.47;;;;;;;8.23;82.84;99174.81;4163675;28;20076;-67
2024/01/02 08:11:18;;;;;;;3.13;0.50;;;;;;;8.27;82.73;99167.94;4163807;28;20045;-67
2024/01/02 08:13:20;;;;;;;0.65;0.43;;;;;;;8.18;82.94;99168.75;4163702;28;20095;-67
2024/01/02 08:15:23;;;;;;;0.93;0.60;;;;;;;8.20;83.00;99154.94;4163773;28;20450;-67
2024/01/02 08:17:42;;;;;;;0.40;0.40;;;;;;;8.21;83.27;99151.50;4163984;28;20399;-67
2024/01/02 08:19:45;;;;;;;2.78;0.55;;;;;;;8.32;83.07;99151.53;4164506;28;20426;-67
2024/01/02 08:21:48;;;;;;;0.60;0.40;;;;;;;8.31;83.04;99157.56;4164406;28;20064;-67
2024/01/02 08:23:51;;;;;;;0.63;0.50;;;;;;;8.42;82.60;99152.41;4164373;28;20068;-66
2024/01/02 08:25:56;;;;;;;1.23;1.00;;;;;;;8.41;82.55;99165.34;4164026;28;20577;-66
2024/01/02 08:27:58;;;;;;;0.93;0.40;;;;;;;8.36;82.79;99150.66;4164425;28;20533;-66
2024/01/02 08:30:00;;;;;;;0.50;0.50;;;;;;;8.29;83.22;99151.50;4159250;28;20123;-67
2024/01/02 08:32:04;;;;;;;0.50;0.50;;;;;;;8.38;83.16;99161.03;4164220;28;20063;-66
2024/01/02 08:34:07;;;;;;;3.10;0.60;;;;;;;8.34;82.92;99165.34;4157851;28;20517;-67
2024/01/02 08:36:11;;;;;;;0.40;0.40;;;;;;;8.38;82.80;99174.84;4163959;28;20053;-67
2024/01/02 08:38:14;;;;;;;1.90;1.30;;;;;;;8.23;83.58;99182.56;4164290;28;20052;-67
2024/01/02 08:40:17;;;;;;;1.52;0.63;;;;;;;8.31;83.23;99185.16;4163028;28;20052;-67
2024/01/02 08:42:22;;;;;;;1.27;0.50;;;;;;;8.21;83.66;99194.66;4162147;28;20060;-67
2024/01/02 08:44:24;;;;;;;1.30;0.50;;;;;;;8.15;83.82;99184.28;4163884;28;20581;-67
2024/01/02 08:46:28;;;;;;;0.75;0.60;;;;;;;8.23;83.84;99189.47;4154523;28;20091;-67
2024/01/02 08:48:30;;;;;;;0.60;0.60;;;;;;;8.27;83.80;99197.25;4155219;28;20131;-67
2024/01/02 08:50:33;;;;;;;0.50;0.50;;;;;;;8.18;84.04;99203.28;4157845;28;20046;-67
2024/01/02 08:52:35;;;;;;;1.20;0.50;;;;;;;8.13;84.00;99202.41;4162790;28;20038;-67
2024/01/02 08:54:39;;;;;;;3.03;0.70;;;;;;;8.17;84.14;99205.84;4157445;28;20056;-67
2024/01/02 08:56:41;;;;;;;2.28;0.70;;;;;;;8.18;84.57;99208.44;4163773;28;20049;-67
2024/01/02 08:58:46;;;;;;;2.53;0.65;;;;;;;8.33;84.13;99212.81;4162694;28;20053;-67
2024/01/02 09:00:49;;;;;;;0.70;0.50;;;;;;;8.33;84.03;99212.81;4164075;28;20038;-67
2024/01/02 09:02:54;;;;;;;0.73;0.50;;;;;;;8.30;84.10;99215.38;4164135;28;20048;-67
2024/01/02 09:04:57;;;;;;;1.08;0.60;;;;;;;8.28;84.24;99224.88;4163783;28;20073;-67
2024/01/02 09:07:00;;;;;;;2.35;0.70;;;;;;;8.35;84.18;99212.81;4161442;28;20042;-67
2024/01/02 09:09:04;;;;;;;1.15;0.55;;;;;;;8.38;83.81;99208.53;4163028;28;20049;-66
2024/01/02 09:11:10;;;;;;;0.57;0.57;;;;;;;8.44;83.51;99218.06;4170528;28;20032;-66
2024/01/02 09:13:13;;;;;;;1.67;0.70;;;;;;;8.44;83.48;99217.16;4168189;28;20044;-67
2024/01/02 09:15:17;;;;;;;1.77;0.50;;;;;;;8.49;83.64;99215.47;4166711;28;20056;-67
2024/01/02 09:17:21;;;;;;;0.52;0.40;;;;;;;8.47;83.67;99206.81;4182837;28;20041;-66
2024/01/02 09:19:23;;;;;;;2.60;0.52;;;;;;;8.54;83.17;99217.22;4167417;28;20042;-67
2024/01/02 09:21:26;;;;;;;1.77;0.70;;;;;;;8.60;83.48;99220.69;4167378;28;20037;-68
2024/01/02 09:23:29;;;;;;;2.28;0.63;;;;;;;8.51;83.60;99213.75;4167340;28;20052;-67
2024/01/02 09:25:36;;;;;;;2.05;0.65;;;;;;;8.48;83.77;99217.19;4170575;28;20044;-67
2024/01/02 09:27:40;;;;;;;0.60;0.60;;;;;;;8.53;83.66;99212.91;4182286;28;20487;-67
2024/01/02 09:29:43;;;;;;;0.80;0.70;;;;;;;8.59;83.60;99214.66;4183580;28;20400;-67
2024/01/02 09:31:50;;;;;;;0.88;0.50;;;;;;;8.54;83.56;99216.34;4182294;28;20038;-67
2024/01/02 09:33:53;;;;;;;0.60;0.60;;;;;;;8.52;83.60;99212.91;4170663;28;20033;-67
2024/01/02 09:35:56;;;;;;;1.05;0.57;;;;;;;8.62;83.21;99214.66;4166771;28;20344;-67
2024/01/02 09:38:00;;;;;;;2.50;0.60;;;;;;;8.50;83.39;99219.81;4166459;28;20141;-67
2024/01/02 09:40:18;;;;;;;4.03;0.40;;;;;;;8.52;83.57;99221.53;4166878;28;20038;-67
2024/01/02 09:42:40;;;;;;;0.55;0.55;;;;;;;8.60;83.30;99220.69;4158326;28;20037;-67
2024/01/02 09:44:54;;;;;;;1.95;0.77;;;;;;;8.64;83.17;99225.88;4133007;28;20389;-67
2024/01/02 09:47:22;;;;;;;0.97;0.70;;;;;;;8.60;83.46;99228.44;4149186;28;20054;-67